Main page
METAR-TAF:

METAR-TAF

Airports :

Melilla Airport

Melilla, Spain

latitude: 35-17N, longitude: 002-57W, elevation: 47 m

Current weather observation

The report was made 36 minutes ago, at 04:00 UTC
Wind 7 kt from the West
Temperature 23°C
Humidity 89%
Pressure 1015 hPa
Visibility: 8000 m
Few clouds at a height of 1000 ft
Broken clouds at a height of 2000 ft

METAR: GEML 160400Z 26007KT 8000 FEW010 BKN020 23/21 Q1015

Time: 06:36 (04:36 UTC)

Forecast

The report was made 2 hours and 36 minutes ago, at 02:00 UTC
Forecast valid from 16 at 03 UTC to 17 at 03 UTC
Wind 6 kt from the West/Northwest
Visibility 10 km or more
Few clouds at a height of 1200 ft
Probability 40% :
Temporary
from 16 at 03 UTC to 16 at 09 UTC
Broken clouds at a height of 1200 ft

TAF: GEML 160200Z 1603/1703 29006KT 9999 FEW012 TX30/1613Z TN21/1604Z PROB40 TEMPO 1603/1609 BKN012

Weather observations and forecasts of more than 4000 airports (METAR and TAF reports).

The available stations are represented by yellow and red dots on the map.

Hover mouse over dot to see the name of the station.

Then click to see weather observations and forecasts.

To change the map : click on the green buttons with a black cross to zoom in, on the green button with a dash to zoom out, or on the green arrows for adjacent maps.


METAR-TAF: